Latest Coastal Weather Observations for Port Macquarie Airport

IDN60701

Issued at 4:11 am EST Friday 31 July 2015 (issued every 10 minutes, with the page automatically refreshed every 10 minutes)

About coastal observations | Map of coastal stations | Coastal observations for NSW | Marine services | Other Formats
Station Details ID: 060139 Name: PORT MACQUARIE AIRPORT AWS Lat: -31.43 Lon: 152.87 Height: 4.2 m
Data from the previous 72 hours. | See also: Recent months at Port Macquarie Airport
Date/Time
EST
Temp

°C
Wind Pressure Rain
since 9am
mm
Weather Cloud Vis
km
Sea
Height
m
Swell
Dir
 
Speed
knots
Gust
knots
hPa Trend Height
m
Period
s
Dir
31/04:00am 7.7 NNW 3 4 1019.8 - 0.0 - - 10 - - - -
31/03:30am 7.1 CALM 0 0 1019.8 - 0.0 - - 10 - - - -
31/03:00am 7.1 W 3 4 1020.0 - 0.0 - Mostly cloudy 10 - - - -
31/02:57am 7.2 WSW 2 4 1020.0 - 0.0 - - 10 - - - -
31/02:38am 6.5 CALM 0 0 1020.1 - 0.0 - - 4 - - - -
31/02:30am 6.7 CALM 0 0 1020.1 - 0.0 - - 10 - - - -
31/02:00am 7.7 CALM 0 0 1020.3 - 0.0 - - 10 - - - -
31/01:30am 8.1 CALM 0 0 1020.7 - 0.0 - - 10 - - - -
31/01:00am 8.5 NW 5 6 1021.0 - 0.0 - - 10 - - - -
31/12:46am 8.3 NNW 2 5 1021.2 - 0.0 - - 10 - - - -
31/12:30am 7.3 N 3 5 1021.3 - 0.0 - - 2 - - - -
31/12:12am 7.1 CALM 0 3 1021.4 - 0.0 - - 5 - - - -
31/12:00am 9.2 N 2 4 1021.3 - 0.0 - Mostly cloudy 10 - - - -
 
Date/Time
EST
Temp

°C
Wind Pressure Rain
since 9am
mm
Weather Cloud Vis
km
Sea
Height
m
Swell
Dir
 
Speed
knots
Gust
knots
hPa Trend Height
m
Period
s
Dir
30/11:30pm 7.6 CALM 0 2 1021.6 - 0.0 - - 9 - - - -
30/11:00pm 8.6 NNW 2 4 1021.8 - 0.0 - - 10 - - - -
30/10:53pm 9.2 CALM 0 3 1021.8 - 0.0 - - 10 - - - -
30/10:30pm 8.1 CALM 0 0 1022.0 - 0.0 - Partly cloudy 0.8 - - - -
30/10:00pm 9.4 CALM 0 0 1021.6 - 0.0 - - 0.6 - - - -
30/09:35pm 8.2 NNW 2 6 1021.7 - 0.0 - - 5 - - - -
30/09:30pm 8.5 CALM 0 0 1021.7 - 0.0 - - 10 - - - -
30/09:00pm 8.9 CALM 0 0 1021.7 - 0.0 - - 10 - - - -
30/08:30pm 10.0 CALM 0 0 1021.7 - 0.0 - - 10 - - - -
30/08:00pm 10.4 NNE 2 4 1021.8 - 0.0 - - 10 - - - -
30/07:30pm 11.7 CALM 0 0 1021.9 - 0.0 - - 10 - - - -
30/07:00pm 13.6 CALM 0 0 1021.8 - 0.0 - - 10 - - - -
30/06:30pm 15.1 N 7 9 1021.6 - 0.0 - - 10 - - - -
30/06:00pm 15.6 NNE 7 9 1021.4 - 0.0 - - 10 - - - -
30/05:30pm 16.2 N 7 10 1021.8 - 0.0 - - 10 - - - -
30/05:00pm 17.2 NNE 8 11 1022.0 - 0.0 - - 10 - - - -
30/04:30pm 17.9 NNE 8 11 1021.9 - 0.0 - - 10 - - - -
30/04:00pm 18.6 NE 10 15 1021.9 - 0.0 - - 10 - - - -
30/03:30pm 19.2 NE 9 12 1022.3 - 0.0 - - 10 - - - -
30/03:00pm 19.6 NE 11 16 1022.1 - 0.0 - - 10 - - - -
30/02:30pm 19.2 NE 10 16 1022.2 - 0.0 - - 10 - - - -
30/02:00pm 19.7 NE 11 15 1022.5 - 0.0 - - 10 - - - -
30/01:30pm 20.7 NNE 9 17 1022.8 - 0.0 - - 10 - - - -
30/01:00pm 20.3 NNE 10 13 1023.7 - 0.0 - - 10 - - - -
30/12:30pm 19.9 N 7 11 1024.5 - 0.0 - - 10 - - - -
30/12:00pm 19.1 N 10 13 1025.1 - 0.0 - - 10 - - - -
30/11:30am 18.9 N 8 11 1026.0 - 0.0 - - 10 - - - -
30/11:00am 18.1 N 5 10 1026.8 - 0.0 - - 10 - - - -
30/10:30am 16.8 NW 4 6 1027.4 - 0.0 - - 10 - - - -
30/10:00am 15.7 NW 6 8 1027.9 - 0.0 - - 10 - - - -
30/09:30am 14.7 NW 5 6 1027.8 - 0.0 - - 10 - - - -
30/09:00am 12.8 WNW 5 8 1028.2 - 0.0 - - 10 - - - -
30/08:30am 11.2 WNW 3 6 1028.3 - 0.0 - - 10 - - - -
30/08:00am 9.1 WSW 3 5 1028.3 - 0.0 - - 10 - - - -
30/07:30am 7.9 WNW 3 4 1028.0 - 0.0 - - 10 - - - -
30/07:00am 7.2 CALM 0 0 1027.9 - 0.0 - - 10 - - - -
30/06:30am 7.2 CALM 0 0 1027.7 - 0.0 - - 10 - - - -
30/06:00am 7.2 NNW 4 5 1027.5 - 0.0 - - 10 - - - -
30/05:30am 7.8 WNW 2 5 1027.3 - 0.0 - - 10 - - - -
30/05:00am 7.7 WNW 5 7 1027.4 - 0.0 - - 10 - - - -
30/04:30am 7.7 NNW 2 4 1027.7 - 0.0 - - 10 - - - -
30/04:00am 7.8 CALM 0 3 1027.8 - 0.0 - - 10 - - - -
30/03:30am 7.7 NW 3 4 1028.1 - 0.0 - - 10 - - - -
30/03:00am 8.1 NNW 3 4 1028.2 - 0.0 - - 10 - - - -
30/02:30am 7.9 NW 3 4 1028.4 - 0.0 - - 10 - - - -
30/02:00am 8.7 CALM 0 0 1028.8 - 0.0 - - 10 - - - -
30/01:30am 9.5 WNW 4 6 1029.2 - 0.0 - Partly cloudy 10 - - - -
30/01:00am 9.6 WNW 6 10 1029.8 - 0.0 - Partly cloudy 10 - - - -
30/12:30am 9.2 WNW 5 7 1029.9 - 0.0 - Partly cloudy 10 - - - -
30/12:00am 9.1 WNW 4 6 1030.1 - 0.0 - Mostly clear 10 - - - -
 
Date/Time
EST
Temp

°C
Wind Pressure Rain
since 9am
mm
Weather Cloud Vis
km
Sea
Height
m
Swell
Dir
 
Speed
knots
Gust
knots
hPa Trend Height
m
Period
s
Dir
29/11:30pm 8.9 NW 2 6 1030.0 - 0.0 - - 10 - - - -
29/11:00pm 8.2 WNW 4 5 1030.1 - 0.0 - - 10 - - - -
29/10:30pm 7.8 WNW 1 4 1030.3 - 0.0 - - 10 - - - -
29/10:00pm 8.4 CALM 0 0 1030.8 - 0.0 - - 10 - - - -
29/09:30pm 7.3 W 1 4 1030.9 - 0.0 - - 10 - - - -
29/09:00pm 7.9 CALM 0 0 1031.0 - 0.0 - - 10 - - - -
29/08:30pm 8.2 CALM 0 0 1031.0 - 0.0 - - 10 - - - -
29/08:00pm 8.7 CALM 0 0 1030.8 - 0.0 - - 10 - - - -
29/07:30pm 9.5 WSW 1 3 1030.7 - 0.0 - - 10 - - - -
29/07:00pm 10.2 CALM 0 1 1030.3 - 0.0 - - 10 - - - -
29/06:30pm 11.9 WSW 1 4 1030.3 - 0.0 - - 10 - - - -
29/06:00pm 12.8 SSW 4 5 1029.9 - 0.0 - - 10 - - - -
29/05:30pm 14.2 S 5 6 1029.7 - 0.0 - - 10 - - - -
29/05:00pm 15.7 SSE 5 7 1029.6 - 0.0 - Partly cloudy 10 - - - -
29/04:30pm 17.1 SSW 7 9 1029.5 - 0.0 - Partly cloudy 10 - - - -
29/04:00pm 17.8 S 8 11 1029.4 - 0.0 - Partly cloudy 10 - - - -
29/03:30pm 17.9 SSW 9 11 1029.5 - 0.0 - - 10 - - - -
29/03:00pm 18.3 S 10 13 1029.5 - 0.0 - Mostly clear 10 - - - -
29/02:30pm 18.5 S 11 14 1029.7 - 0.0 - Cloudy 10 - - - -
29/02:00pm 18.0 SSW 10 14 1029.9 - 0.0 - Partly cloudy 10 - - - -
29/01:30pm 18.9 S 10 13 1030.0 - 0.0 - Partly cloudy 10 - - - -
29/01:00pm 18.7 SSW 10 13 1030.5 - 0.0 - Partly cloudy 10 - - - -
29/12:30pm 18.6 SSW 9 13 1030.9 - 0.0 - Partly cloudy 10 - - - -
29/12:00pm 18.3 SSW 11 15 1031.5 - 0.0 - Mostly cloudy 10 - - - -
29/11:30am 18.2 WSW 11 14 1032.0 - 0.0 - Partly cloudy 10 - - - -
29/11:00am 17.2 W 8 11 1032.5 - 0.0 - Partly cloudy 10 - - - -
29/10:30am 15.5 W 7 10 1032.9 - 0.0 - Partly cloudy 10 - - - -
29/10:00am 14.3 W 7 9 1033.2 - 0.0 - Cloudy 10 - - - -
29/09:30am 13.6 W 8 12 1033.5 - 0.0 - Partly cloudy 10 - - - -
29/09:00am 12.3 W 9 12 1033.6 - 0.0 - Cloudy 10 - - - -
29/08:30am 11.9 W 9 12 1033.4 - 0.0 - Partly cloudy 10 - - - -
29/08:00am 11.0 W 8 11 1033.1 - 0.0 - Partly cloudy 10 - - - -
29/07:30am 10.5 W 8 11 1033.1 - 0.0 - Partly cloudy 10 - - - -
29/07:00am 10.0 W 8 11 1032.9 - 0.0 - Partly cloudy 10 - - - -
29/06:30am 9.7 W 7 10 1032.5 - 0.0 - Partly cloudy 10 - - - -
29/06:00am 9.5 W 8 11 1032.2 - 0.0 - Mostly cloudy 10 - - - -
29/05:30am 9.3 WNW 9 12 1032.2 - 0.0 - Cloudy 10 - - - -
29/05:00am 8.6 SW 5 8 1032.2 - 0.0 - Partly cloudy 10 - - - -
29/04:30am 8.8 W 8 11 1031.8 - 0.0 - Partly cloudy 10 - - - -
29/04:00am 8.0 W 6 9 1031.6 - 0.0 - Partly cloudy 10 - - - -
29/03:30am 8.2 W 6 9 1031.5 - 0.0 - Partly cloudy 10 - - - -
29/03:00am 7.9 W 7 11 1031.7 - 0.0 - Partly cloudy 10 - - - -
29/02:30am 7.6 W 7 9 1031.7 - 0.0 - Partly cloudy 10 - - - -
29/02:00am 7.8 W 9 12 1031.6 - 0.0 - - 10 - - - -
29/01:30am 7.7 W 8 11 1031.7 - 0.0 - - 10 - - - -
29/01:00am 7.7 W 7 11 1031.9 - 0.0 - - 10 - - - -
29/12:30am 8.1 W 9 13 1032.0 - 0.0 - Partly cloudy 10 - - - -
29/12:00am 8.1 W 8 13 1032.1 - 0.0 - - 10 - - - -
 
Date/Time
EST
Temp

°C
Wind Pressure Rain
since 9am
mm
Weather Cloud Vis
km
Sea
Height
m
Swell
Dir
 
Speed
knots
Gust
knots
hPa Trend Height
m
Period
s
Dir
28/11:30pm 8.1 W 8 11 1032.2 - 0.0 - - 10 - - - -
28/11:00pm 7.7 W 6 9 1032.1 - 0.0 - - 10 - - - -
28/10:30pm 8.0 W 7 8 1032.1 - 0.0 - - 10 - - - -
28/10:00pm 7.2 WNW 3 8 1032.2 - 0.0 - - 10 - - - -
28/09:30pm 6.1 NW 5 6 1032.3 - 0.0 - - 10 - - - -
28/09:00pm 7.7 WSW 6 8 1032.4 - 0.0 - - 10 - - - -
28/08:30pm 6.7 WSW 1 5 1032.4 - 0.0 - - 10 - - - -
28/08:00pm 7.0 SSW 3 4 1032.3 - 0.0 - - 10 - - - -
28/07:30pm 6.6 WSW 5 6 1032.2 - 0.0 - - 10 - - - -
28/07:00pm 6.6 WSW 5 6 1032.0 - 0.0 - - 10 - - - -
28/06:30pm 7.3 SW 6 7 1031.6 - 0.0 - - 10 - - - -
28/06:00pm 8.6 CALM 0 0 1031.1 - 0.0 - - 10 - - - -
28/05:30pm 9.7 WSW 3 4 1030.8 - 0.0 - - 10 - - - -
28/05:00pm 13.9 WSW 2 4 1030.5 - 0.0 - - 10 - - - -
28/04:30pm 15.2 SW 6 8 1030.3 - 0.0 - - 10 - - - -
28/04:00pm 16.1 SW 8 11 1030.1 - 0.0 - - 10 - - - -
28/03:30pm 16.7 WSW 10 13 1029.9 - 0.0 - - 10 - - - -
28/03:00pm 17.0 SW 9 14 1029.8 - 0.0 - - 10 - - - -
28/02:30pm 17.0 SSW 10 14 1029.9 - 0.0 - - 10 - - - -
28/02:00pm 16.9 SSW 10 13 1029.8 - 0.0 - - 10 - - - -
28/01:30pm 16.9 SW 8 11 1030.0 - 0.0 - - 10 - - - -
28/01:00pm 16.3 SW 10 14 1030.3 - 0.0 - - 10 - - - -
28/12:30pm 16.2 SW 13 17 1030.8 - 0.0 - - 10 - - - -
28/12:00pm 16.0 SW 12 17 1031.1 - 0.0 - - 10 - - - -
28/11:30am 15.6 SW 12 17 1031.5 - 0.0 - - 10 - - - -
28/11:00am 14.8 SW 13 17 1032.0 - 0.0 - - 10 - - - -
28/10:30am 14.4 WSW 10 15 1032.2 - 0.0 - - 10 - - - -
28/10:00am 13.5 WSW 8 11 1032.2 - 0.0 - - 10 - - - -
28/09:30am 12.3 WSW 7 9 1032.3 - 0.0 - - 10 - - - -
28/09:00am 10.7 WSW 7 9 1032.1 - 0.0 - - 10 - - - -
28/08:30am 9.3 W 5 8 1031.9 - 0.0 - - 10 - - - -
28/08:00am 7.7 W 9 12 1031.6 - 0.0 - - 10 - - - -
28/07:30am 6.8 W 8 9 1031.3 - 0.0 - - 10 - - - -
28/07:00am 5.8 W 8 11 1031.0 - 0.0 - - 10 - - - -
28/06:30am 4.7 WSW 5 7 1030.6 - 0.0 - - 10 - - - -
28/06:00am 5.7 W 7 8 1030.0 - 0.0 - - 10 - - - -
28/05:30am 5.7 W 6 9 1029.6 - 0.0 - - 10 - - - -
28/05:00am 5.7 W 6 8 1029.3 - 0.0 - - 10 - - - -
28/04:30am 5.6 W 5 7 1029.1 - 0.0 - - 10 - - - -

Other Formats:

Comma delimited format used in spreadsheet applications
http://www.bom.gov.au/fwo/IDN60701/IDN60701.94786.axf

JavaScript Object Notation format (JSON) in row-major order
http://www.bom.gov.au/fwo/IDN60701/IDN60701.94786.json